Time;durP1;ratioP1;P1;durP2;ratioP2;P2;SDS_P1;SDS_P2;PMS_P1;PMS_P2;Temp;Humidity;BMP_temperature;BMP_pressure;BME280_temperature;BME280_humidity;BME280_pressure;Samples;Min_cycle;Max_cycle;Signal;HPM_P1;HPM_P2
2024/01/10 00:02:09;;;;;;;12.52;8.95;;;;;;;-3.73;52.39;98859.19;4987724;28;20206;-73
2024/01/10 00:04:36;;;;;;;12.88;9.52;;;;;;;-3.71;52.28;98854.66;4989916;28;20216;-73
2024/01/10 00:07:02;;;;;;;15.43;9.57;;;;;;;-3.53;52.20;98860.59;4993469;28;20209;-73
2024/01/10 00:09:29;;;;;;;13.88;10.13;;;;;;;-3.50;52.19;98849.81;4990883;28;20839;-73
2024/01/10 00:11:57;;;;;;;10.80;8.43;;;;;;;-3.65;52.45;98856.94;4991426;28;20203;-73
2024/01/10 00:14:24;;;;;;;13.82;10.05;;;;;;;-3.67;52.63;98858.81;4989483;28;20222;-73
2024/01/10 00:16:50;;;;;;;12.70;8.93;;;;;;;-3.63;52.93;98849.75;4989271;28;20310;-74
2024/01/10 00:19:17;;;;;;;14.82;11.18;;;;;;;-3.50;52.48;98855.13;4990490;28;20202;-74
2024/01/10 00:21:44;;;;;;;12.10;9.02;;;;;;;-3.79;53.12;98852.47;5004237;28;20306;-73
2024/01/10 00:24:10;;;;;;;11.70;8.57;;;;;;;-3.67;53.05;98842.94;4990816;28;20282;-73
2024/01/10 00:26:37;;;;;;;11.43;8.60;;;;;;;-3.59;53.40;98840.69;4989650;28;20210;-74
2024/01/10 00:29:05;;;;;;;15.85;10.38;;;;;;;-3.46;53.01;98840.75;4990122;28;20211;-74
2024/01/10 00:31:32;;;;;;;12.05;9.90;;;;;;;-3.40;53.16;98841.25;4988891;28;20211;-74
2024/01/10 00:33:58;;;;;;;13.70;10.25;;;;;;;-3.38;53.05;98842.00;4990523;28;20203;-73
2024/01/10 00:36:25;;;;;;;13.32;9.65;;;;;;;-3.50;53.03;98844.53;4990188;28;20213;-73
2024/01/10 00:38:51;;;;;;;12.52;9.27;;;;;;;-3.65;53.15;98840.22;4991381;28;20204;-73
2024/01/10 00:41:18;;;;;;;13.50;9.50;;;;;;;-3.67;53.26;98829.72;4990333;28;20294;-73
2024/01/10 00:43:44;;;;;;;14.75;10.43;;;;;;;-3.57;53.35;98846.69;4995871;28;20223;-73
2024/01/10 00:46:13;;;;;;;14.18;10.05;;;;;;;-3.51;53.28;98829.59;4989594;28;20203;-73
2024/01/10 00:48:39;;;;;;;12.75;9.48;;;;;;;-3.61;53.34;98832.00;4990839;28;20299;-73
2024/01/10 00:51:08;;;;;;;15.27;9.68;;;;;;;-3.68;53.63;98832.47;4989666;28;20203;-73
2024/01/10 00:53:34;;;;;;;12.50;9.15;;;;;;;-3.65;53.61;98837.56;4991245;28;20211;-73
2024/01/10 00:56:01;;;;;;;12.38;9.38;;;;;;;-3.51;53.70;98837.53;4987224;28;20214;-73
2024/01/10 00:58:28;;;;;;;11.75;8.50;;;;;;;-3.50;53.74;98829.50;4991484;28;20203;-73
2024/01/10 01:00:54;;;;;;;13.95;9.23;;;;;;;-3.46;53.22;98825.75;4991441;28;20211;-73
2024/01/10 01:03:22;;;;;;;13.98;9.40;;;;;;;-3.55;54.19;98842.16;4991913;28;20217;-72
2024/01/10 01:05:49;;;;;;;13.60;9.02;;;;;;;-3.37;54.01;98834.91;4980993;28;20229;-73
2024/01/10 01:08:15;;;;;;;13.77;9.30;;;;;;;-3.36;53.78;98839.25;4988603;28;20213;-73
2024/01/10 01:10:42;;;;;;;10.57;8.85;;;;;;;-3.51;54.11;98841.03;4985445;28;20219;-73
2024/01/10 01:13:08;;;;;;;12.80;10.10;;;;;;;-3.57;53.79;98848.53;4992034;28;20195;-73
2024/01/10 01:15:35;;;;;;;13.25;9.23;;;;;;;-3.56;54.33;98847.56;4989065;28;20318;-73
2024/01/10 01:18:01;;;;;;;12.85;9.25;;;;;;;-3.49;54.28;98851.53;4990843;28;20199;-74
2024/01/10 01:20:29;;;;;;;13.68;10.02;;;;;;;-3.59;54.37;98855.72;4988609;28;20683;-73
2024/01/10 01:22:56;;;;;;;13.07;9.15;;;;;;;-3.50;54.02;98853.31;5008361;28;20265;-73
2024/01/10 01:25:22;;;;;;;13.32;11.05;;;;;;;-3.73;54.43;98854.75;4987793;28;20223;-73
2024/01/10 01:27:49;;;;;;;14.60;9.90;;;;;;;-3.67;55.02;98864.09;4991347;28;20202;-73
2024/01/10 01:30:15;;;;;;;13.80;10.18;;;;;;;-3.65;54.61;98859.56;4990807;28;20984;-73
2024/01/10 01:32:42;;;;;;;13.32;8.98;;;;;;;-3.58;54.34;98858.25;4991228;28;20671;-73
2024/01/10 01:35:08;;;;;;;14.60;9.18;;;;;;;-3.53;54.52;98857.94;4989284;28;20549;-73
2024/01/10 01:37:36;;;;;;;14.40;10.38;;;;;;;-3.51;54.20;98864.00;4984378;28;20199;-73
2024/01/10 01:40:03;;;;;;;13.40;8.98;;;;;;;-3.55;54.49;98857.19;4990025;28;20203;-73
2024/01/10 01:42:30;;;;;;;12.60;9.45;;;;;;;-3.73;54.77;98852.09;4989144;28;20207;-73
2024/01/10 01:44:56;;;;;;;13.48;9.32;;;;;;;-3.76;54.95;98854.91;4990394;28;20222;-73
2024/01/10 01:47:23;;;;;;;18.17;9.32;;;;;;;-3.59;54.56;98855.72;4988414;28;20206;-73
2024/01/10 01:49:49;;;;;;;12.93;9.60;;;;;;;-3.60;55.01;98849.56;4987049;28;20214;-73
2024/01/10 01:52:16;;;;;;;13.88;9.40;;;;;;;-3.74;55.12;98842.47;4987391;28;20669;-72
2024/01/10 01:54:44;;;;;;;13.43;9.93;;;;;;;-3.64;54.97;98841.91;4988442;28;20204;-73
2024/01/10 01:57:11;;;;;;;12.80;9.40;;;;;;;-3.73;54.71;98838.03;4988273;28;20229;-73
2024/01/10 01:59:37;;;;;;;14.70;10.25;;;;;;;-4.01;56.14;98836.19;4989773;28;20207;-73
2024/01/10 02:02:05;;;;;;;13.63;9.90;;;;;;;-3.81;55.52;98838.47;4997522;28;20203;-73
2024/01/10 02:04:33;;;;;;;12.73;8.88;;;;;;;-3.99;56.56;98836.09;4988595;28;20222;-73
2024/01/10 02:07:00;;;;;;;13.88;9.00;;;;;;;-3.83;56.04;98836.88;4987611;28;20207;-73
2024/01/10 02:09:27;;;;;;;13.35;9.32;;;;;;;-3.71;56.33;98836.13;4990054;28;20282;-73
2024/01/10 02:11:56;;;;;;;15.20;10.85;;;;;;;-3.59;55.57;98839.84;4989167;28;20660;-73
2024/01/10 02:14:23;;;;;;;13.27;9.45;;;;;;;-3.79;56.04;98836.59;4999559;28;20237;-72
2024/01/10 02:16:49;;;;;;;14.70;9.57;;;;;;;-3.78;56.29;98834.81;4987806;28;20309;-74
2024/01/10 02:19:21;;;;;;;14.65;9.25;;;;;;;-3.70;56.53;98837.84;4971279;28;20216;-71
2024/01/10 02:21:47;;;;;;;15.32;8.48;;;;;;;-3.95;56.77;98835.84;4980176;28;20214;-73
2024/01/10 02:24:14;;;;;;;14.68;9.80;;;;;;;-3.70;56.72;98837.00;4988607;28;20199;-73
2024/01/10 02:26:42;;;;;;;17.27;9.82;;;;;;;-3.77;57.29;98831.22;4986338;28;20688;-73
2024/01/10 02:29:09;;;;;;;12.43;9.45;;;;;;;-3.79;57.38;98831.31;4987774;28;20196;-74
2024/01/10 02:31:35;;;;;;;14.75;9.35;;;;;;;-3.77;57.18;98832.06;4989875;28;20207;-74
2024/01/10 02:34:01;;;;;;;14.73;9.20;;;;;;;-3.65;56.86;98825.19;4992908;28;20210;-73
2024/01/10 02:36:28;;;;;;;15.68;9.40;;;;;;;-3.75;57.04;98822.25;4987545;28;20207;-74
2024/01/10 02:38:55;;;;;;;12.88;9.63;;;;;;;-3.63;57.34;98819.81;4985656;28;20750;-74
2024/01/10 02:41:21;;;;;;;13.65;9.07;;;;;;;-3.72;56.80;98823.84;4987578;28;20204;-74
2024/01/10 02:43:49;;;;;;;13.68;9.05;;;;;;;-3.83;57.37;98821.00;4986639;28;20261;-74
2024/01/10 02:46:16;;;;;;;14.10;9.40;;;;;;;-3.90;57.60;98817.06;5002284;28;20223;-73
2024/01/10 02:48:45;;;;;;;14.05;9.60;;;;;;;-3.78;57.56;98818.94;4987572;28;20688;-73
2024/01/10 02:51:12;;;;;;;13.27;9.15;;;;;;;-3.91;57.94;98813.56;4988563;28;20350;-74
2024/01/10 02:53:38;;;;;;;13.38;10.75;;;;;;;-4.02;58.41;98818.63;4989576;28;20333;-74
2024/01/10 02:56:06;;;;;;;16.38;10.38;;;;;;;-4.07;58.17;98813.63;4980929;28;20257;-71
2024/01/10 02:58:32;;;;;;;16.90;10.30;;;;;;;-4.17;58.30;98816.91;4987527;28;20222;-73
2024/01/10 03:01:01;;;;;;;14.82;10.32;;;;;;;-4.02;58.64;98820.44;4997743;28;20572;-74
2024/01/10 03:03:27;;;;;;;13.93;10.00;;;;;;;-4.21;58.89;98816.22;5006661;28;20211;-73
2024/01/10 03:05:54;;;;;;;17.58;10.85;;;;;;;-4.07;58.75;98813.63;4969348;28;20706;-74
2024/01/10 03:08:20;;;;;;;12.70;9.27;;;;;;;-3.90;58.28;98809.97;4989221;28;20249;-74
2024/01/10 03:10:47;;;;;;;15.60;11.00;;;;;;;-3.87;58.30;98804.47;4986281;28;20686;-74
2024/01/10 03:13:14;;;;;;;12.35;8.95;;;;;;;-3.99;58.66;98812.31;4989614;28;20735;-74
2024/01/10 03:15:40;;;;;;;14.20;10.07;;;;;;;-4.17;59.43;98811.63;4986598;28;20207;-73
2024/01/10 03:18:08;;;;;;;14.50;10.13;;;;;;;-4.29;59.50;98812.38;4984797;28;20195;-72
2024/01/10 03:20:34;;;;;;;14.73;9.93;;;;;;;-4.17;59.46;98801.91;4989407;28;20211;-73
2024/01/10 03:23:01;;;;;;;14.57;9.73;;;;;;;-4.04;59.32;98806.47;4989111;28;20201;-73
2024/01/10 03:25:28;;;;;;;14.60;10.38;;;;;;;-4.06;59.15;98799.47;4989574;28;20704;-77
2024/01/10 03:27:54;;;;;;;12.38;10.02;;;;;;;-3.89;59.19;98797.56;4984961;28;20203;-74
2024/01/10 03:30:24;;;;;;;14.77;9.90;;;;;;;-3.83;59.25;98794.56;4989523;28;20195;-74
2024/01/10 03:32:50;;;;;;;13.15;9.55;;;;;;;-3.80;59.02;98789.09;4985971;28;20214;-74
2024/01/10 03:35:18;;;;;;;15.48;11.27;;;;;;;-3.89;59.06;98793.16;4985739;28;20261;-74
2024/01/10 03:37:45;;;;;;;13.93;9.90;;;;;;;-4.06;59.64;98794.19;4985484;28;20230;-73
2024/01/10 03:40:12;;;;;;;13.13;10.23;;;;;;;-3.93;59.59;98791.66;4986448;28;20207;-73
2024/01/10 03:42:38;;;;;;;13.27;9.48;;;;;;;-3.93;59.25;98794.31;4982884;28;20210;-72
2024/01/10 03:45:06;;;;;;;15.38;9.98;;;;;;;-3.67;59.16;98784.75;4990026;28;20726;-73
2024/01/10 03:47:32;;;;;;;14.15;9.93;;;;;;;-3.83;59.47;98789.28;4989384;28;20236;-73
2024/01/10 03:49:59;;;;;;;14.27;11.07;;;;;;;-3.81;58.96;98792.69;4988227;28;20211;-71
2024/01/10 03:52:27;;;;;;;17.00;10.57;;;;;;;-3.82;59.34;98790.97;4988663;28;20211;-73
2024/01/10 03:54:53;;;;;;;13.88;9.02;;;;;;;-3.94;59.66;98802.31;4989452;28;20222;-73
2024/01/10 03:57:20;;;;;;;11.43;8.85;;;;;;;-3.98;59.51;98796.38;4988710;28;20199;-73
2024/01/10 03:59:46;;;;;;;17.50;10.60;;;;;;;-3.81;59.06;98792.69;4987878;28;20203;-73
2024/01/10 04:02:13;;;;;;;16.05;10.00;;;;;;;-4.00;59.53;98792.97;4999128;28;20211;-73
2024/01/10 04:04:39;;;;;;;12.93;10.18;;;;;;;-4.03;59.87;98787.00;4988282;28;20213;-72
2024/01/10 04:07:07;;;;;;;14.20;10.75;;;;;;;-3.81;59.35;98797.97;4983660;28;20225;-73
2024/01/10 04:09:34;;;;;;;14.20;9.85;;;;;;;-3.90;59.34;98795.91;4998412;28;20222;-73
2024/01/10 04:12:01;;;;;;;14.98;10.75;;;;;;;-3.82;59.61;98796.28;4987155;28;20203;-73
2024/01/10 04:14:27;;;;;;;16.10;10.38;;;;;;;-3.79;59.68;98802.22;4989224;28;20203;-73
2024/01/10 04:16:54;;;;;;;16.48;11.43;;;;;;;-4.01;59.40;98801.00;4988984;28;20213;-73
2024/01/10 04:19:21;;;;;;;13.65;9.98;;;;;;;-4.08;60.11;98796.06;4988457;28;20203;-72
2024/01/10 04:21:47;;;;;;;15.55;10.68;;;;;;;-4.00;60.31;98807.97;4987842;28;20675;-73
2024/01/10 04:24:14;;;;;;;14.07;9.93;;;;;;;-3.90;60.06;98809.97;4990500;28;20688;-73
2024/01/10 04:26:41;;;;;;;12.07;9.50;;;;;;;-3.97;59.92;98802.50;4993266;28;20211;-73
2024/01/10 04:29:08;;;;;;;14.45;10.27;;;;;;;-3.94;60.28;98802.31;4987375;28;20207;-73
2024/01/10 04:31:35;;;;;;;14.15;10.00;;;;;;;-3.99;60.23;98799.09;4982043;28;20214;-73
2024/01/10 04:34:02;;;;;;;13.57;10.30;;;;;;;-3.86;60.79;98800.88;4988910;28;20207;-73
2024/01/10 04:36:28;;;;;;;14.98;10.85;;;;;;;-3.98;60.77;98796.38;4988667;28;20215;-73
2024/01/10 04:38:56;;;;;;;15.93;11.60;;;;;;;-3.94;61.01;98799.69;4989564;28;20202;-72
2024/01/10 04:41:23;;;;;;;15.10;9.90;;;;;;;-3.76;60.94;98798.53;4989773;28;20738;-73
2024/01/10 04:44:06;;;;;;;15.18;9.57;;;;;;;-3.60;60.38;98786.09;4988552;28;20969;-73
2024/01/10 04:46:33;;;;;;;15.98;11.48;;;;;;;-3.56;60.96;98792.00;4989580;28;20661;-72
2024/01/10 04:49:00;;;;;;;14.88;10.63;;;;;;;-3.39;60.59;98797.97;4989569;28;20207;-72
2024/01/10 04:51:26;;;;;;;18.27;10.82;;;;;;;-3.50;61.00;98796.91;4991576;28;20213;-72
2024/01/10 04:53:56;;;;;;;12.45;10.05;;;;;;;-3.39;60.88;98791.81;4993486;28;20199;-73
2024/01/10 04:56:22;;;;;;;14.40;9.85;;;;;;;-3.41;60.40;98794.56;5001540;28;20218;-73
2024/01/10 04:58:49;;;;;;;14.00;10.45;;;;;;;-3.36;60.31;98798.72;4993289;28;20645;-73
2024/01/10 05:01:17;;;;;;;15.45;10.20;;;;;;;-3.44;60.35;98810.63;4993111;28;20215;-73
2024/01/10 05:03:44;;;;;;;14.75;9.90;;;;;;;-3.36;60.41;98790.78;4993170;28;20203;-73
2024/01/10 05:06:10;;;;;;;15.55;10.45;;;;;;;-3.26;59.99;98798.03;4993424;28;20207;-72
2024/01/10 05:08:38;;;;;;;12.90;10.07;;;;;;;-3.43;59.80;98799.09;4992117;28;20211;-73
2024/01/10 05:11:05;;;;;;;14.02;10.13;;;;;;;-3.23;59.89;98796.97;4989902;28;20199;-73
2024/01/10 05:13:31;;;;;;;14.63;11.23;;;;;;;-3.49;59.74;98799.47;4991507;28;20217;-72
2024/01/10 05:15:58;;;;;;;12.60;9.57;;;;;;;-3.53;60.36;98792.66;4991099;28;20199;-72
2024/01/10 05:18:25;;;;;;;17.52;11.63;;;;;;;-3.56;60.39;98803.44;4985809;28;20282;-72
2024/01/10 05:20:52;;;;;;;16.38;10.82;;;;;;;-3.49;60.42;98803.91;4994102;28;20209;-72
2024/01/10 05:23:20;;;;;;;14.82;11.75;;;;;;;-3.49;60.37;98799.47;4989955;28;20568;-72
2024/01/10 05:25:47;;;;;;;17.50;11.45;;;;;;;-3.50;60.96;98803.06;4992533;28;20302;-73
2024/01/10 05:28:13;;;;;;;14.55;10.05;;;;;;;-3.61;61.20;98794.97;5007975;28;20238;-72
2024/01/10 05:30:42;;;;;;;19.77;10.73;;;;;;;-3.55;60.96;98796.34;4994318;28;20283;-72
2024/01/10 05:33:09;;;;;;;15.32;10.40;;;;;;;-3.63;61.20;98802.16;5001316;28;20238;-72
2024/01/10 05:35:37;;;;;;;14.50;10.18;;;;;;;-3.51;61.20;98796.06;4991827;28;20657;-73
2024/01/10 05:38:08;;;;;;;13.98;10.35;;;;;;;-3.72;62.31;98805.34;4991706;28;20254;-73
2024/01/10 05:40:35;;;;;;;14.35;10.05;;;;;;;-3.57;61.99;98801.72;4993286;28;20210;-73
2024/01/10 05:43:03;;;;;;;15.90;9.73;;;;;;;-3.58;61.78;98805.34;4993782;28;20207;-72
2024/01/10 05:45:30;;;;;;;17.27;9.82;;;;;;;-3.51;62.04;98796.06;4988561;28;20215;-72
2024/01/10 05:47:59;;;;;;;15.20;10.07;;;;;;;-3.44;61.60;98801.84;4990987;28;20265;-74
2024/01/10 05:50:25;;;;;;;17.48;9.98;;;;;;;-3.44;62.35;98807.97;4999567;28;20225;-74
2024/01/10 05:52:54;;;;;;;13.48;10.02;;;;;;;-3.54;62.07;98806.84;4992638;28;20207;-73
2024/01/10 05:55:23;;;;;;;16.15;11.25;;;;;;;-3.34;61.88;98802.97;4991167;28;20684;-73
2024/01/10 05:57:50;;;;;;;13.57;10.73;;;;;;;-3.31;61.77;98797.47;4991948;28;20206;-73
2024/01/10 06:00:18;;;;;;;15.65;9.68;;;;;;;-3.20;61.67;98802.94;4991337;28;20269;-73
2024/01/10 06:02:45;;;;;;;14.98;10.80;;;;;;;-3.24;61.92;98803.22;4993514;28;20214;-73
2024/01/10 06:05:15;;;;;;;14.57;10.30;;;;;;;-3.17;61.81;98796.59;4989191;28;20200;-73
2024/01/10 06:07:42;;;;;;;13.98;10.25;;;;;;;-3.29;62.25;98800.03;4989218;28;20203;-75
2024/01/10 06:10:10;;;;;;;15.10;10.20;;;;;;;-3.21;62.18;98806.50;4991171;28;20210;-73
2024/01/10 06:12:37;;;;;;;12.57;9.52;;;;;;;-3.37;61.83;98803.16;4989466;28;20315;-73
2024/01/10 06:15:06;;;;;;;14.40;10.80;;;;;;;-3.40;62.13;98811.28;4997346;28;20234;-73
2024/01/10 06:17:32;;;;;;;13.82;10.77;;;;;;;-3.24;61.36;98804.06;4988121;28;20207;-73
2024/01/10 06:19:59;;;;;;;16.60;10.52;;;;;;;-3.43;61.50;98804.38;4990982;28;20249;-72
2024/01/10 06:22:26;;;;;;;17.35;11.88;;;;;;;-3.59;62.32;98808.94;4990363;28;20196;-73
2024/01/10 06:24:52;;;;;;;12.18;9.68;;;;;;;-3.48;61.85;98810.91;4992910;28;20206;-73
2024/01/10 06:27:20;;;;;;;14.68;10.82;;;;;;;-3.43;62.06;98809.69;4982929;28;20909;-73
2024/01/10 06:29:47;;;;;;;16.67;10.73;;;;;;;-3.66;62.36;98807.63;5004216;28;20209;-73
2024/01/10 06:32:14;;;;;;;13.38;10.02;;;;;;;-3.55;62.18;98814.88;4990632;28;20207;-73
2024/01/10 06:34:40;;;;;;;14.50;9.98;;;;;;;-3.52;62.52;98815.53;4992345;28;20262;-73
2024/01/10 06:37:08;;;;;;;15.48;10.73;;;;;;;-3.33;61.78;98817.91;4988898;28;20294;-74
2024/01/10 06:39:35;;;;;;;12.98;9.95;;;;;;;-3.49;61.76;98820.63;4987038;28;20214;-74
2024/01/10 06:42:03;;;;;;;13.68;9.60;;;;;;;-3.64;62.29;98823.41;5004688;28;20238;-76
2024/01/10 06:44:31;;;;;;;12.95;10.63;;;;;;;-3.48;62.06;98822.34;4991177;28;20230;-75
2024/01/10 06:47:00;;;;;;;15.07;12.00;;;;;;;-3.51;61.83;98822.53;4967182;28;20231;-76
2024/01/10 06:49:27;;;;;;;16.13;11.75;;;;;;;-3.44;62.07;98830.94;4982046;28;20890;-75
2024/01/10 06:51:54;;;;;;;17.98;11.95;;;;;;;-3.51;61.44;98832.25;4988582;28;20207;-76
2024/01/10 06:54:20;;;;;;;16.98;11.70;;;;;;;-3.67;62.60;98831.50;4991507;28;20203;-75
2024/01/10 06:56:47;;;;;;;12.25;10.45;;;;;;;-3.63;62.79;98822.44;4990262;28;20199;-72
2024/01/10 06:59:13;;;;;;;13.43;10.40;;;;;;;-3.45;62.74;98824.78;4991456;28;20203;-74
2024/01/10 07:01:41;;;;;;;16.05;12.60;;;;;;;-3.41;61.86;98823.66;4986230;28;20253;-74
2024/01/10 07:04:08;;;;;;;13.73;10.90;;;;;;;-3.72;62.66;98829.16;4989722;28;20222;-73
2024/01/10 07:06:34;;;;;;;14.48;10.02;;;;;;;-3.53;62.02;98827.06;4987388;28;20467;-72
2024/01/10 07:09:02;;;;;;;18.65;12.70;;;;;;;-3.51;61.66;98826.97;4987228;28;20223;-71
2024/01/10 07:11:29;;;;;;;16.63;10.70;;;;;;;-3.49;61.30;98833.00;4996544;28;20207;-72
2024/01/10 07:13:56;;;;;;;13.98;10.15;;;;;;;-3.57;61.13;98835.31;4989806;28;20207;-72
2024/01/10 07:16:22;;;;;;;15.60;10.85;;;;;;;-3.55;61.68;98825.44;5020873;28;20750;-72
2024/01/10 07:18:51;;;;;;;14.63;11.27;;;;;;;-3.50;61.36;98826.88;4990780;28;20207;-72
2024/01/10 07:21:18;;;;;;;15.95;11.38;;;;;;;-3.34;60.56;98823.28;4987951;28;20561;-72
2024/01/10 07:23:45;;;;;;;17.92;12.80;;;;;;;-3.66;61.56;98820.84;4988862;28;20203;-72
2024/01/10 07:26:16;;;;;;;15.25;11.38;;;;;;;-3.59;61.66;98824.81;4996113;28;21384;-74
2024/01/10 07:28:42;;;;;;;15.85;12.73;;;;;;;-3.62;60.92;98830.28;4993302;28;20542;-73
2024/01/10 07:31:09;;;;;;;16.02;12.68;;;;;;;-3.66;61.70;98834.06;5021986;28;20203;-74
2024/01/10 07:33:35;;;;;;;15.10;11.52;;;;;;;-3.50;61.19;98841.88;4982967;28;20203;-73
2024/01/10 07:36:03;;;;;;;15.48;10.70;;;;;;;-3.46;60.94;98836.31;4985339;28;20211;-73
2024/01/10 07:38:30;;;;;;;12.55;10.05;;;;;;;-3.43;60.89;98841.41;4989148;28;20207;-74
2024/01/10 07:40:59;;;;;;;15.50;11.77;;;;;;;-3.33;60.56;98851.44;4987414;28;20206;-73
2024/01/10 07:43:25;;;;;;;16.98;11.05;;;;;;;-3.34;61.08;98844.44;4998943;28;20308;-73
2024/01/10 07:45:52;;;;;;;15.45;10.68;;;;;;;-3.50;62.01;98853.31;4988043;28;20205;-74
2024/01/10 07:48:20;;;;;;;16.17;11.50;;;;;;;-3.41;61.65;98854.56;4989472;28;20207;-73
2024/01/10 07:50:47;;;;;;;15.38;11.75;;;;;;;-3.64;62.02;98857.78;5001702;28;20823;-74
2024/01/10 07:53:15;;;;;;;15.02;12.20;;;;;;;-3.45;61.90;98860.97;4994493;28;20219;-73
2024/01/10 07:55:41;;;;;;;17.23;13.35;;;;;;;-3.49;61.91;98854.19;4998512;28;20696;-73
2024/01/10 07:58:08;;;;;;;18.77;12.88;;;;;;;-3.43;61.92;98856.44;4989120;28;20196;-74
2024/01/10 08:00:35;;;;;;;20.45;13.18;;;;;;;-3.26;61.74;98863.34;4990445;28;20207;-74
2024/01/10 08:03:04;;;;;;;18.13;12.20;;;;;;;-3.22;61.17;98864.84;4989530;28;20199;-74
2024/01/10 08:05:31;;;;;;;17.65;12.38;;;;;;;-3.19;61.47;98867.28;4985403;28;20706;-73
2024/01/10 08:07:58;;;;;;;17.70;11.75;;;;;;;-3.01;60.72;98863.50;4980619;28;20692;-75
2024/01/10 08:10:27;;;;;;;20.27;12.05;;;;;;;-3.00;60.48;98874.94;4986261;28;20535;-74
2024/01/10 08:12:53;;;;;;;16.90;11.80;;;;;;;-3.01;60.66;98876.75;4989653;28;20669;-73
2024/01/10 08:15:20;;;;;;;17.10;11.40;;;;;;;-2.91;60.64;98875.19;4988301;28;20282;-73
2024/01/10 08:17:47;;;;;;;16.70;11.25;;;;;;;-3.00;60.76;98881.09;4983542;28;20196;-73
2024/01/10 08:20:14;;;;;;;16.27;11.55;;;;;;;-2.82;60.43;98879.91;4988203;28;20202;-74
2024/01/10 08:22:43;;;;;;;17.95;11.48;;;;;;;-2.96;60.79;98873.81;4992668;28;20199;-73
2024/01/10 08:25:10;;;;;;;15.63;11.35;;;;;;;-2.81;60.80;98878.97;4987444;28;20273;-74
2024/01/10 08:27:38;;;;;;;15.27;11.10;;;;;;;-2.93;60.64;98882.41;4990141;28;20225;-73
2024/01/10 08:30:09;;;;;;;17.00;11.30;;;;;;;-2.90;60.74;98876.88;4991633;28;20507;-74
2024/01/10 08:32:36;;;;;;;17.17;11.68;;;;;;;-2.50;60.27;98879.63;4988698;28;20203;-73
2024/01/10 08:35:04;;;;;;;13.60;10.90;;;;;;;-2.27;59.80;98878.13;4988939;28;20242;-73
2024/01/10 08:37:31;;;;;;;19.30;11.95;;;;;;;-2.22;59.57;98890.13;4987739;28;20202;-73
2024/01/10 08:40:00;;;;;;;14.50;11.10;;;;;;;-2.22;59.03;98892.75;4992642;28;20207;-72
2024/01/10 08:42:27;;;;;;;16.92;11.98;;;;;;;-2.24;59.49;98893.81;4993334;28;20223;-73
2024/01/10 08:44:55;;;;;;;18.17;12.80;;;;;;;-2.34;59.23;98890.94;4991813;28;20287;-73
2024/01/10 08:47:22;;;;;;;17.33;12.95;;;;;;;-2.41;59.09;98894.94;4991817;28;20659;-73
2024/01/10 08:49:49;;;;;;;17.45;13.43;;;;;;;-2.17;58.97;98895.97;5001069;28;20731;-73
2024/01/10 08:52:15;;;;;;;16.63;12.57;;;;;;;-2.02;58.47;98891.47;4989633;28;20237;-72
2024/01/10 08:54:42;;;;;;;16.70;12.38;;;;;;;-2.41;58.79;98892.28;4992370;28;20657;-73
2024/01/10 08:57:08;;;;;;;15.85;12.13;;;;;;;-2.24;59.07;98888.50;4989894;28;20210;-72
2024/01/10 08:59:35;;;;;;;17.77;12.98;;;;;;;-2.22;59.19;98898.06;4989904;28;20569;-72
2024/01/10 09:02:03;;;;;;;21.45;13.13;;;;;;;-1.99;58.69;98901.00;4990117;28;20202;-72
2024/01/10 09:04:29;;;;;;;20.42;13.85;;;;;;;-1.94;58.33;98904.19;5021348;28;20227;-73
2024/01/10 09:06:57;;;;;;;16.17;13.30;;;;;;;-1.79;58.14;98895.22;4992225;28;20310;-73
2024/01/10 09:09:23;;;;;;;19.85;13.63;;;;;;;-1.08;55.88;98894.69;4987641;28;20222;-75
2024/01/10 09:11:50;;;;;;;17.02;13.20;;;;;;;-0.46;54.59;98897.31;5000457;28;20213;-74
2024/01/10 09:14:16;;;;;;;18.05;13.60;;;;;;;-0.15;52.93;98902.06;4990118;28;20238;-73
2024/01/10 09:16:43;;;;;;;18.27;14.23;;;;;;;-0.39;53.03;98903.88;4990619;28;20231;-74
2024/01/10 09:19:11;;;;;;;17.45;13.75;;;;;;;0.10;52.87;98908.19;4988155;28;20314;-74
2024/01/10 09:21:38;;;;;;;17.25;14.45;;;;;;;0.92;50.63;98900.03;4993468;28;20199;-74
2024/01/10 09:24:08;;;;;;;17.92;14.20;;;;;;;1.25;48.61;98898.34;5008809;28;20207;-75
2024/01/10 09:26:35;;;;;;;17.65;14.18;;;;;;;1.16;49.01;98897.25;4991212;28;20215;-74
2024/01/10 09:29:01;;;;;;;18.35;15.00;;;;;;;1.55;48.10;98887.88;4990684;28;20211;-73
2024/01/10 09:31:28;;;;;;;18.63;14.07;;;;;;;1.41;47.66;98897.94;4991650;28;20572;-74
2024/01/10 09:33:54;;;;;;;17.70;15.10;;;;;;;1.34;47.35;98901.09;4991694;28;20223;-74
2024/01/10 09:36:24;;;;;;;17.80;15.30;;;;;;;1.60;48.10;98901.69;4991069;28;20215;-74
2024/01/10 09:38:51;;;;;;;18.05;14.38;;;;;;;2.09;46.68;98902.13;4985734;28;20207;-74
2024/01/10 09:41:18;;;;;;;17.80;15.50;;;;;;;2.12;46.55;98913.41;4993491;28;20325;-74
2024/01/10 09:43:44;;;;;;;19.58;15.73;;;;;;;1.86;46.99;98907.56;5000064;28;20199;-74
2024/01/10 09:46:12;;;;;;;19.13;15.77;;;;;;;2.09;47.51;98902.13;4991330;28;20211;-73
2024/01/10 09:48:38;;;;;;;21.77;16.08;;;;;;;2.18;47.03;98910.22;4991192;28;20305;-74
2024/01/10 09:51:05;;;;;;;17.50;13.85;;;;;;;2.12;46.55;98915.22;4990603;28;20573;-74
2024/01/10 09:53:36;;;;;;;19.75;16.02;;;;;;;2.93;45.64;98909.16;4996291;28;20207;-74
2024/01/10 09:56:05;;;;;;;17.08;14.70;;;;;;;3.22;44.40;98899.47;4992275;28;20217;-75
2024/01/10 09:58:38;;;;;;;19.33;15.60;;;;;;;3.46;43.82;98900.97;4993117;28;20200;-75
2024/01/10 10:01:05;;;;;;;17.15;15.00;;;;;;;3.53;43.26;98902.13;5007752;28;20246;-74
2024/01/10 10:03:32;;;;;;;16.85;14.27;;;;;;;3.84;43.27;98902.88;4992333;28;20733;-73
2024/01/10 10:06:00;;;;;;;17.83;15.68;;;;;;;3.74;43.22;98902.88;4990981;28;20213;-74
2024/01/10 10:08:26;;;;;;;19.50;16.10;;;;;;;3.71;43.34;98895.94;5020592;28;20235;-76
2024/01/10 10:10:54;;;;;;;17.40;15.48;;;;;;;4.33;41.29;98891.19;4991875;28;20203;-73
2024/01/10 10:13:27;;;;;;;18.77;15.60;;;;;;;4.25;41.55;98885.69;4992384;28;20282;-73
2024/01/10 10:16:01;;;;;;;18.25;15.32;;;;;;;4.18;41.28;98889.94;4991045;28;20207;-73
2024/01/10 10:18:27;;;;;;;20.73;16.80;;;;;;;3.75;42.23;98888.50;5003280;28;20214;-73
2024/01/10 10:21:11;;;;;;;18.20;15.85;;;;;;;3.52;42.96;98884.38;4987406;28;20676;-74
2024/01/10 10:23:38;;;;;;;19.00;15.85;;;;;;;3.38;43.03;98890.94;4988876;28;20210;-73
2024/01/10 10:26:14;;;;;;;18.95;16.05;;;;;;;3.61;43.84;98878.16;4992080;28;20253;-73
2024/01/10 10:28:41;;;;;;;20.30;16.63;;;;;;;3.93;43.26;98883.28;4987652;28;20215;-74
2024/01/10 10:31:08;;;;;;;19.75;17.35;;;;;;;3.89;41.90;98880.06;5006786;28;20215;-73
2024/01/10 10:33:34;;;;;;;19.55;17.23;;;;;;;3.91;41.94;98874.56;4988217;28;20214;-73
2024/01/10 10:36:01;;;;;;;20.23;18.13;;;;;;;3.86;41.91;98880.34;4990568;28;20301;-74
2024/01/10 10:38:28;;;;;;;18.70;16.75;;;;;;;3.70;42.07;98878.19;4988995;28;20209;-74
2024/01/10 10:40:55;;;;;;;20.42;17.58;;;;;;;4.27;41.20;98867.66;4988937;28;20195;-73
2024/01/10 10:43:23;;;;;;;18.70;16.80;;;;;;;4.56;40.74;98862.25;4985459;28;20206;-73
2024/01/10 10:45:50;;;;;;;21.35;18.13;;;;;;;4.45;40.54;98862.44;4986707;28;20199;-73
2024/01/10 10:48:19;;;;;;;19.65;17.40;;;;;;;4.30;40.82;98864.69;4989558;28;20716;-75
2024/01/10 10:50:54;;;;;;;19.75;17.27;;;;;;;4.25;40.64;98873.16;4990521;28;20207;-73
2024/01/10 10:53:23;;;;;;;21.45;16.90;;;;;;;4.35;41.26;98879.34;4990945;28;20287;-73
2024/01/10 10:55:52;;;;;;;20.70;17.20;;;;;;;4.08;41.08;98891.78;4989783;28;20191;-73
2024/01/10 10:58:19;;;;;;;20.70;18.35;;;;;;;3.46;42.48;98887.59;4990112;28;20199;-73
2024/01/10 11:00:48;;;;;;;19.95;17.20;;;;;;;3.43;44.18;98885.19;4988693;28;20225;-73
2024/01/10 11:03:15;;;;;;;22.50;19.25;;;;;;;4.26;42.22;98890.06;4991817;28;20652;-74
2024/01/10 11:05:42;;;;;;;19.75;17.58;;;;;;;4.80;40.94;98872.53;4989262;28;20207;-73
2024/01/10 11:08:12;;;;;;;21.05;18.48;;;;;;;4.83;40.90;98877.59;4992252;28;20233;-73
2024/01/10 11:10:40;;;;;;;21.38;18.20;;;;;;;4.67;41.79;98868.31;4994276;28;20207;-73
2024/01/10 11:13:23;;;;;;;20.90;18.73;;;;;;;4.38;41.98;98875.56;4990474;28;20213;-73
2024/01/10 11:16:35;;;;;;;21.52;17.95;;;;;;;4.73;41.01;98867.75;4993169;28;20265;-73
2024/01/10 11:19:38;;;;;;;21.90;17.75;;;;;;;5.28;40.52;98867.81;4997207;28;20310;-73
2024/01/10 11:22:15;;;;;;;22.48;17.85;;;;;;;6.06;38.68;98863.69;5022893;28;20679;-75
2024/01/10 11:24:42;;;;;;;20.52;18.35;;;;;;;5.87;38.78;98863.78;4992414;28;20289;-74